sensor_id;sensor_type;location;lat;lon;timestamp;pressure;altitude;pressure_sealevel;temperature;humidity
4972;BME280;2501;51.214;6.768;2022-09-06T00:02:02;100985.78;;;23.33;100.00
4972;BME280;2501;51.214;6.768;2022-09-06T00:04:31;100987.22;;;23.37;100.00
4972;BME280;2501;51.214;6.768;2022-09-06T00:06:59;101000.75;;;23.42;100.00
4972;BME280;2501;51.214;6.768;2022-09-06T00:09:27;101008.16;;;23.49;100.00
4972;BME280;2501;51.214;6.768;2022-09-06T00:11:58;101022.44;;;23.45;100.00
4972;BME280;2501;51.214;6.768;2022-09-06T00:14:27;101064.53;;;23.52;100.00
4972;BME280;2501;51.214;6.768;2022-09-06T00:16:55;101086.34;;;23.43;100.00
4972;BME280;2501;51.214;6.768;2022-09-06T00:19:24;101077.66;;;23.37;100.00
4972;BME280;2501;51.214;6.768;2022-09-06T00:21:52;101066.69;;;23.39;100.00
4972;BME280;2501;51.214;6.768;2022-09-06T00:24:21;101068.00;;;23.47;100.00
4972;BME280;2501;51.214;6.768;2022-09-06T00:26:49;101061.84;;;23.49;100.00
4972;BME280;2501;51.214;6.768;2022-09-06T00:29:20;101087.00;;;23.47;100.00
4972;BME280;2501;51.214;6.768;2022-09-06T00:31:49;101114.91;;;23.45;100.00
4972;BME280;2501;51.214;6.768;2022-09-06T00:34:17;101106.84;;;23.34;100.00
4972;BME280;2501;51.214;6.768;2022-09-06T00:36:45;101116.03;;;23.17;100.00
4972;BME280;2501;51.214;6.768;2022-09-06T00:39:14;101110.59;;;23.00;100.00
4972;BME280;2501;51.214;6.768;2022-09-06T00:41:42;101123.22;;;22.87;100.00
4972;BME280;2501;51.214;6.768;2022-09-06T00:44:11;101121.78;;;22.82;100.00
4972;BME280;2501;51.214;6.768;2022-09-06T00:46:44;101125.66;;;22.76;100.00
4972;BME280;2501;51.214;6.768;2022-09-06T00:49:17;101120.94;;;22.73;100.00
4972;BME280;2501;51.214;6.768;2022-09-06T00:51:50;101131.56;;;22.69;100.00
4972;BME280;2501;51.214;6.768;2022-09-06T00:54:19;101138.44;;;22.68;100.00
4972;BME280;2501;51.214;6.768;2022-09-06T00:56:48;101145.25;;;22.57;100.00
4972;BME280;2501;51.214;6.768;2022-09-06T00:59:17;101144.78;;;22.59;100.00
4972;BME280;2501;51.214;6.768;2022-09-06T01:01:48;101149.63;;;22.58;100.00
4972;BME280;2501;51.214;6.768;2022-09-06T01:04:17;101155.22;;;22.49;100.00
4972;BME280;2501;51.214;6.768;2022-09-06T01:06:54;101152.00;;;22.38;100.00
4972;BME280;2501;51.214;6.768;2022-09-06T01:09:36;101150.88;;;22.23;100.00
4972;BME280;2501;51.214;6.768;2022-09-06T01:12:20;101153.88;;;22.07;100.00
4972;BME280;2501;51.214;6.768;2022-09-06T01:15:03;101143.03;;;21.80;100.00
4972;BME280;2501;51.214;6.768;2022-09-06T01:17:43;101141.81;;;21.68;100.00
4972;BME280;2501;51.214;6.768;2022-09-06T01:20:28;101126.38;;;21.22;100.00
4972;BME280;2501;51.214;6.768;2022-09-06T01:23:19;101112.00;;;20.63;100.00
4972;BME280;2501;51.214;6.768;2022-09-06T01:26:04;101098.06;;;20.31;100.00
4972;BME280;2501;51.214;6.768;2022-09-06T01:28:45;101093.47;;;20.20;100.00
4972;BME280;2501;51.214;6.768;2022-09-06T01:31:20;101085.66;;;20.12;100.00
4972;BME280;2501;51.214;6.768;2022-09-06T01:34:06;101078.72;;;20.16;100.00
4972;BME280;2501;51.214;6.768;2022-09-06T01:36:43;101075.13;;;20.16;100.00
4972;BME280;2501;51.214;6.768;2022-09-06T01:39:20;101070.38;;;20.13;100.00
4972;BME280;2501;51.214;6.768;2022-09-06T01:41:50;101068.16;;;20.20;100.00
4972;BME280;2501;51.214;6.768;2022-09-06T01:44:24;101054.13;;;20.20;100.00
4972;BME280;2501;51.214;6.768;2022-09-06T01:46:59;101046.38;;;20.24;100.00
4972;BME280;2501;51.214;6.768;2022-09-06T01:49:38;101031.25;;;20.35;100.00
4972;BME280;2501;51.214;6.768;2022-09-06T01:52:13;101037.13;;;20.40;100.00
4972;BME280;2501;51.214;6.768;2022-09-06T01:55:04;101049.59;;;20.39;100.00
4972;BME280;2501;51.214;6.768;2022-09-06T01:57:48;101069.78;;;20.50;100.00
4972;BME280;2501;51.214;6.768;2022-09-06T02:00:23;101080.47;;;20.55;100.00
4972;BME280;2501;51.214;6.768;2022-09-06T02:02:58;101079.84;;;20.64;100.00
4972;BME280;2501;51.214;6.768;2022-09-06T02:05:31;101081.91;;;20.76;100.00
4972;BME280;2501;51.214;6.768;2022-09-06T02:08:07;101080.09;;;20.82;100.00
4972;BME280;2501;51.214;6.768;2022-09-06T02:10:41;101070.19;;;20.77;100.00
4972;BME280;2501;51.214;6.768;2022-09-06T02:13:12;101080.09;;;20.69;100.00
4972;BME280;2501;51.214;6.768;2022-09-06T02:15:49;101077.28;;;20.69;100.00
4972;BME280;2501;51.214;6.768;2022-09-06T02:18:22;101071.41;;;20.64;100.00
4972;BME280;2501;51.214;6.768;2022-09-06T02:20:55;101069.78;;;20.50;100.00
4972;BME280;2501;51.214;6.768;2022-09-06T02:23:29;101058.56;;;20.63;100.00
4972;BME280;2501;51.214;6.768;2022-09-06T02:26:03;101064.88;;;20.67;100.00
4972;BME280;2501;51.214;6.768;2022-09-06T02:28:33;101049.31;;;20.50;100.00
4972;BME280;2501;51.214;6.768;2022-09-06T02:31:07;101039.94;;;20.40;100.00
4972;BME280;2501;51.214;6.768;2022-09-06T02:33:39;101044.75;;;20.40;100.00
4972;BME280;2501;51.214;6.768;2022-09-06T02:36:08;101033.19;;;20.38;100.00
4972;BME280;2501;51.214;6.768;2022-09-06T02:38:38;101030.81;;;20.36;100.00
4972;BME280;2501;51.214;6.768;2022-09-06T02:41:09;101023.31;;;20.46;100.00
4972;BME280;2501;51.214;6.768;2022-09-06T02:43:38;101019.56;;;20.36;100.00
4972;BME280;2501;51.214;6.768;2022-09-06T02:46:09;101020.03;;;20.47;100.00
4972;BME280;2501;51.214;6.768;2022-09-06T02:48:37;101013.44;;;20.54;100.00
4972;BME280;2501;51.214;6.768;2022-09-06T02:51:07;101022.09;;;20.59;100.00
4972;BME280;2501;51.214;6.768;2022-09-06T02:53:36;101023.09;;;20.53;100.00
4972;BME280;2501;51.214;6.768;2022-09-06T02:56:05;101020.16;;;20.56;100.00
4972;BME280;2501;51.214;6.768;2022-09-06T02:58:33;101028.72;;;20.53;100.00
4972;BME280;2501;51.214;6.768;2022-09-06T03:01:02;101013.22;;;20.61;100.00
4972;BME280;2501;51.214;6.768;2022-09-06T03:03:33;101003.94;;;20.48;100.00
4972;BME280;2501;51.214;6.768;2022-09-06T03:06:02;100997.31;;;20.42;100.00
4972;BME280;2501;51.214;6.768;2022-09-06T03:08:30;100994.75;;;20.60;100.00
4972;BME280;2501;51.214;6.768;2022-09-06T03:11:04;100990.72;;;20.73;100.00
4972;BME280;2501;51.214;6.768;2022-09-06T03:13:32;100973.03;;;20.73;100.00
4972;BME280;2501;51.214;6.768;2022-09-06T03:16:01;100973.84;;;20.73;100.00
4972;BME280;2501;51.214;6.768;2022-09-06T03:18:32;100975.75;;;20.76;100.00
4972;BME280;2501;51.214;6.768;2022-09-06T03:21:01;100977.53;;;20.70;100.00
4972;BME280;2501;51.214;6.768;2022-09-06T03:23:30;100966.16;;;20.61;100.00
4972;BME280;2501;51.214;6.768;2022-09-06T03:25:58;100977.75;;;20.63;100.00
4972;BME280;2501;51.214;6.768;2022-09-06T03:28:27;100989.34;;;20.53;100.00
4972;BME280;2501;51.214;6.768;2022-09-06T03:30:55;100984.41;;;20.69;100.00
4972;BME280;2501;51.214;6.768;2022-09-06T03:33:24;100989.91;;;20.60;100.00
4972;BME280;2501;51.214;6.768;2022-09-06T03:35:56;100988.28;;;20.47;100.00
4972;BME280;2501;51.214;6.768;2022-09-06T03:38:26;100984.91;;;20.39;100.00
4972;BME280;2501;51.214;6.768;2022-09-06T03:40:56;100992.56;;;20.39;100.00
4972;BME280;2501;51.214;6.768;2022-09-06T03:43:25;100994.06;;;20.27;100.00
4972;BME280;2501;51.214;6.768;2022-09-06T03:45:55;100997.97;;;20.17;100.00
4972;BME280;2501;51.214;6.768;2022-09-06T03:48:26;100996.88;;;20.14;100.00
4972;BME280;2501;51.214;6.768;2022-09-06T03:50:58;101002.81;;;20.16;100.00
4972;BME280;2501;51.214;6.768;2022-09-06T03:53:27;101008.44;;;20.16;100.00
4972;BME280;2501;51.214;6.768;2022-09-06T03:55:56;101000.94;;;19.97;100.00
4972;BME280;2501;51.214;6.768;2022-09-06T03:58:28;101003.66;;;20.01;100.00
4972;BME280;2501;51.214;6.768;2022-09-06T04:01:02;101003.41;;;19.95;100.00
4972;BME280;2501;51.214;6.768;2022-09-06T04:03:31;101000.94;;;19.97;100.00
4972;BME280;2501;51.214;6.768;2022-09-06T04:06:02;100997.59;;;20.02;100.00
4972;BME280;2501;51.214;6.768;2022-09-06T04:08:32;100996.75;;;19.89;100.00
4972;BME280;2501;51.214;6.768;2022-09-06T04:11:01;100993.78;;;19.80;100.00
4972;BME280;2501;51.214;6.768;2022-09-06T04:13:30;100995.38;;;19.65;100.00
4972;BME280;2501;51.214;6.768;2022-09-06T04:15:59;100993.66;;;19.55;100.00
4972;BME280;2501;51.214;6.768;2022-09-06T04:18:28;100998.38;;;19.58;100.00
4972;BME280;2501;51.214;6.768;2022-09-06T04:20:57;100994.19;;;19.50;100.00
4972;BME280;2501;51.214;6.768;2022-09-06T04:23:28;100994.63;;;19.48;100.00
4972;BME280;2501;51.214;6.768;2022-09-06T04:25:58;101006.63;;;19.49;100.00
4972;BME280;2501;51.214;6.768;2022-09-06T04:28:27;101001.38;;;19.51;100.00
4972;BME280;2501;51.214;6.768;2022-09-06T04:30:57;101003.13;;;19.45;100.00
4972;BME280;2501;51.214;6.768;2022-09-06T04:33:26;101005.66;;;19.39;100.00
4972;BME280;2501;51.214;6.768;2022-09-06T04:35:56;100994.06;;;19.37;100.00
4972;BME280;2501;51.214;6.768;2022-09-06T04:38:29;101008.69;;;19.48;100.00
4972;BME280;2501;51.214;6.768;2022-09-06T04:40:58;100999.47;;;19.48;100.00
4972;BME280;2501;51.214;6.768;2022-09-06T04:43:26;101004.63;;;19.49;100.00
4972;BME280;2501;51.214;6.768;2022-09-06T04:45:55;100996.28;;;19.46;100.00
4972;BME280;2501;51.214;6.768;2022-09-06T04:48:23;100993.84;;;19.48;100.00
4972;BME280;2501;51.214;6.768;2022-09-06T04:50:52;101004.28;;;19.47;100.00
4972;BME280;2501;51.214;6.768;2022-09-06T04:53:20;101001.63;;;19.40;100.00
4972;BME280;2501;51.214;6.768;2022-09-06T04:55:51;101004.88;;;19.38;100.00
4972;BME280;2501;51.214;6.768;2022-09-06T04:58:20;101000.94;;;19.36;100.00
4972;BME280;2501;51.214;6.768;2022-09-06T05:00:48;101007.41;;;19.33;100.00
4972;BME280;2501;51.214;6.768;2022-09-06T05:03:17;101025.91;;;19.30;100.00
4972;BME280;2501;51.214;6.768;2022-09-06T05:05:45;101016.97;;;19.35;100.00
4972;BME280;2501;51.214;6.768;2022-09-06T05:08:14;101020.84;;;19.58;100.00
4972;BME280;2501;51.214;6.768;2022-09-06T05:10:43;101020.16;;;19.54;100.00
4972;BME280;2501;51.214;6.768;2022-09-06T05:13:14;101026.84;;;19.60;100.00
4972;BME280;2501;51.214;6.768;2022-09-06T05:15:42;101017.44;;;19.66;100.00
4972;BME280;2501;51.214;6.768;2022-09-06T05:18:11;101021.03;;;19.67;100.00
4972;BME280;2501;51.214;6.768;2022-09-06T05:20:39;101029.78;;;19.69;100.00
4972;BME280;2501;51.214;6.768;2022-09-06T05:23:08;101023.38;;;19.68;100.00
4972;BME280;2501;51.214;6.768;2022-09-06T05:25:36;101018.66;;;19.49;100.00
4972;BME280;2501;51.214;6.768;2022-09-06T05:28:05;101026.47;;;19.58;100.00
4972;BME280;2501;51.214;6.768;2022-09-06T05:30:36;101027.34;;;19.71;100.00
4972;BME280;2501;51.214;6.768;2022-09-06T05:33:05;101031.34;;;19.86;100.00
4972;BME280;2501;51.214;6.768;2022-09-06T05:35:34;101031.25;;;19.90;100.00
4972;BME280;2501;51.214;6.768;2022-09-06T05:38:02;101032.13;;;20.03;100.00
4972;BME280;2501;51.214;6.768;2022-09-06T05:40:32;101036.16;;;20.02;100.00
4972;BME280;2501;51.214;6.768;2022-09-06T05:43:00;101030.03;;;19.91;100.00
4972;BME280;2501;51.214;6.768;2022-09-06T05:45:29;101024.56;;;20.00;100.00
4972;BME280;2501;51.214;6.768;2022-09-06T05:48:00;101030.09;;;20.03;100.00
4972;BME280;2501;51.214;6.768;2022-09-06T05:50:28;101025.50;;;20.09;100.00
4972;BME280;2501;51.214;6.768;2022-09-06T05:52:57;101030.69;;;20.11;100.00
4972;BME280;2501;51.214;6.768;2022-09-06T05:55:25;101034.72;;;20.10;100.00
4972;BME280;2501;51.214;6.768;2022-09-06T05:57:54;101023.22;;;20.04;100.00
4972;BME280;2501;51.214;6.768;2022-09-06T06:00:22;101023.91;;;20.08;100.00
4972;BME280;2501;51.214;6.768;2022-09-06T06:02:51;101024.97;;;20.14;100.00
4972;BME280;2501;51.214;6.768;2022-09-06T06:05:22;101030.03;;;20.19;100.00
4972;BME280;2501;51.214;6.768;2022-09-06T06:07:50;101029.69;;;20.17;100.00
4972;BME280;2501;51.214;6.768;2022-09-06T06:10:20;101028.59;;;20.27;100.00
4972;BME280;2501;51.214;6.768;2022-09-06T06:12:48;101027.31;;;20.32;100.00
4972;BME280;2501;51.214;6.768;2022-09-06T06:15:16;101029.84;;;20.26;100.00
4972;BME280;2501;51.214;6.768;2022-09-06T06:17:45;101035.63;;;20.36;100.00
4972;BME280;2501;51.214;6.768;2022-09-06T06:20:14;101027.56;;;20.38;100.00
4972;BME280;2501;51.214;6.768;2022-09-06T06:22:45;101025.66;;;20.47;100.00
4972;BME280;2501;51.214;6.768;2022-09-06T06:25:13;101019.75;;;20.58;100.00
4972;BME280;2501;51.214;6.768;2022-09-06T06:27:46;101019.63;;;20.74;100.00
4972;BME280;2501;51.214;6.768;2022-09-06T06:30:15;101014.66;;;20.53;100.00
4972;BME280;2501;51.214;6.768;2022-09-06T06:32:43;101011.88;;;20.65;100.00
4972;BME280;2501;51.214;6.768;2022-09-06T06:35:12;101010.78;;;20.47;100.00
4972;BME280;2501;51.214;6.768;2022-09-06T06:37:40;101016.16;;;20.70;100.00
4972;BME280;2501;51.214;6.768;2022-09-06T06:40:12;101009.28;;;20.71;100.00
4972;BME280;2501;51.214;6.768;2022-09-06T06:42:41;101009.06;;;20.91;100.00
4972;BME280;2501;51.214;6.768;2022-09-06T06:45:10;101008.41;;;20.99;100.00
4972;BME280;2501;51.214;6.768;2022-09-06T06:47:38;100995.66;;;20.95;100.00
4972;BME280;2501;51.214;6.768;2022-09-06T06:50:08;101004.13;;;21.07;100.00
4972;BME280;2501;51.214;6.768;2022-09-06T06:52:36;101006.97;;;21.20;100.00
4972;BME280;2501;51.214;6.768;2022-09-06T06:55:05;101001.41;;;21.29;100.00
4972;BME280;2501;51.214;6.768;2022-09-06T06:57:36;101006.06;;;21.36;100.00
4972;BME280;2501;51.214;6.768;2022-09-06T07:00:07;101002.31;;;21.26;100.00
4972;BME280;2501;51.214;6.768;2022-09-06T07:02:35;100998.72;;;21.38;100.00
4972;BME280;2501;51.214;6.768;2022-09-06T07:05:05;101007.16;;;21.38;100.00
4972;BME280;2501;51.214;6.768;2022-09-06T07:07:33;101005.81;;;21.43;100.00
4972;BME280;2501;51.214;6.768;2022-09-06T07:10:02;101001.69;;;21.56;100.00
4972;BME280;2501;51.214;6.768;2022-09-06T07:12:31;101000.44;;;21.70;100.00
4972;BME280;2501;51.214;6.768;2022-09-06T07:15:02;101008.69;;;21.64;100.00
4972;BME280;2501;51.214;6.768;2022-09-06T07:17:31;101009.81;;;21.67;100.00
4972;BME280;2501;51.214;6.768;2022-09-06T07:20:00;101004.59;;;21.78;100.00
4972;BME280;2501;51.214;6.768;2022-09-06T07:22:28;101005.69;;;21.93;100.00
4972;BME280;2501;51.214;6.768;2022-09-06T07:24:57;100997.69;;;21.92;100.00
4972;BME280;2501;51.214;6.768;2022-09-06T07:27:26;100999.59;;;21.95;100.00
4972;BME280;2501;51.214;6.768;2022-09-06T07:29:54;101011.16;;;22.09;100.00
4972;BME280;2501;51.214;6.768;2022-09-06T07:32:25;101002.50;;;22.26;100.00
4972;BME280;2501;51.214;6.768;2022-09-06T07:34:55;101005.06;;;22.33;100.00
4972;BME280;2501;51.214;6.768;2022-09-06T07:37:24;101006.78;;;22.30;100.00
4972;BME280;2501;51.214;6.768;2022-09-06T07:39:52;101002.91;;;22.37;100.00
4972;BME280;2501;51.214;6.768;2022-09-06T07:42:21;101009.25;;;22.50;100.00
4972;BME280;2501;51.214;6.768;2022-09-06T07:44:49;101002.28;;;22.63;100.00
4972;BME280;2501;51.214;6.768;2022-09-06T07:47:18;101006.44;;;22.72;100.00
4972;BME280;2501;51.214;6.768;2022-09-06T07:49:49;101007.22;;;22.72;100.00
4972;BME280;2501;51.214;6.768;2022-09-06T07:52:18;101017.50;;;22.88;100.00
4972;BME280;2501;51.214;6.768;2022-09-06T07:54:46;101014.38;;;22.95;100.00
4972;BME280;2501;51.214;6.768;2022-09-06T07:57:15;101021.13;;;22.97;100.00
4972;BME280;2501;51.214;6.768;2022-09-06T07:59:43;101024.59;;;23.01;100.00
4972;BME280;2501;51.214;6.768;2022-09-06T08:02:16;101024.88;;;22.85;100.00
4972;BME280;2501;51.214;6.768;2022-09-06T08:04:44;101026.16;;;22.93;100.00
4972;BME280;2501;51.214;6.768;2022-09-06T08:07:15;101033.41;;;23.03;100.00
4972;BME280;2501;51.214;6.768;2022-09-06T08:09:44;101026.59;;;23.23;100.00
4972;BME280;2501;51.214;6.768;2022-09-06T08:12:12;101026.59;;;23.23;100.00
4972;BME280;2501;51.214;6.768;2022-09-06T08:14:41;101023.44;;;23.21;100.00
4972;BME280;2501;51.214;6.768;2022-09-06T08:17:09;101031.78;;;23.33;100.00
4972;BME280;2501;51.214;6.768;2022-09-06T08:19:38;101030.31;;;23.50;100.00
4972;BME280;2501;51.214;6.768;2022-09-06T08:22:06;101029.84;;;23.61;100.00
4972;BME280;2501;51.214;6.768;2022-09-06T08:24:37;101029.56;;;23.77;100.00
4972;BME280;2501;51.214;6.768;2022-09-06T08:27:06;101029.59;;;23.86;100.00
4972;BME280;2501;51.214;6.768;2022-09-06T08:29:35;101031.94;;;23.97;100.00
4972;BME280;2501;51.214;6.768;2022-09-06T08:32:04;101030.84;;;24.03;100.00
4972;BME280;2501;51.214;6.768;2022-09-06T08:34:32;101028.34;;;24.06;100.00
4972;BME280;2501;51.214;6.768;2022-09-06T08:37:01;101024.91;;;24.20;100.00
4972;BME280;2501;51.214;6.768;2022-09-06T08:39:29;101022.53;;;24.27;100.00
4972;BME280;2501;51.214;6.768;2022-09-06T08:42:02;101027.41;;;24.27;100.00
4972;BME280;2501;51.214;6.768;2022-09-06T08:44:35;101025.84;;;24.17;100.00
4972;BME280;2501;51.214;6.768;2022-09-06T08:47:07;101025.34;;;24.36;100.00
4972;BME280;2501;51.214;6.768;2022-09-06T08:49:37;101024.56;;;24.45;100.00
4972;BME280;2501;51.214;6.768;2022-09-06T08:52:25;101020.31;;;24.40;100.00
4972;BME280;2501;51.214;6.768;2022-09-06T08:55:09;101025.78;;;24.62;100.00
4972;BME280;2501;51.214;6.768;2022-09-06T08:57:54;101018.69;;;24.76;100.00
4972;BME280;2501;51.214;6.768;2022-09-06T09:00:26;101016.13;;;24.96;100.00
4972;BME280;2501;51.214;6.768;2022-09-06T09:03:02;101020.97;;;25.05;100.00
4972;BME280;2501;51.214;6.768;2022-09-06T09:05:34;101014.13;;;25.20;100.00
4972;BME280;2501;51.214;6.768;2022-09-06T09:08:10;101012.66;;;25.25;100.00
4972;BME280;2501;51.214;6.768;2022-09-06T09:10:41;101016.03;;;25.14;100.00
4972;BME280;2501;51.214;6.768;2022-09-06T09:13:23;101013.28;;;25.29;100.00
4972;BME280;2501;51.214;6.768;2022-09-06T09:15:52;101016.06;;;25.38;100.00
4972;BME280;2501;51.214;6.768;2022-09-06T09:18:24;101007.28;;;25.36;100.00
4972;BME280;2501;51.214;6.768;2022-09-06T09:20:54;100996.34;;;25.20;100.00
4972;BME280;2501;51.214;6.768;2022-09-06T09:23:23;101004.22;;;25.16;100.00
4972;BME280;2501;51.214;6.768;2022-09-06T09:25:54;101001.06;;;25.47;100.00
4972;BME280;2501;51.214;6.768;2022-09-06T09:28:28;101001.16;;;25.61;100.00
4972;BME280;2501;51.214;6.768;2022-09-06T09:30:57;100996.63;;;25.55;100.00
4972;BME280;2501;51.214;6.768;2022-09-06T09:33:31;100989.94;;;25.67;100.00
4972;BME280;2501;51.214;6.768;2022-09-06T09:36:05;100991.94;;;25.75;100.00
4972;BME280;2501;51.214;6.768;2022-09-06T09:38:40;100988.34;;;25.89;100.00
4972;BME280;2501;51.214;6.768;2022-09-06T09:41:23;100987.66;;;25.95;100.00
4972;BME280;2501;51.214;6.768;2022-09-06T09:43:58;100971.25;;;25.99;100.00
4972;BME280;2501;51.214;6.768;2022-09-06T09:46:29;100972.16;;;26.19;100.00
4972;BME280;2501;51.214;6.768;2022-09-06T09:49:06;100969.03;;;26.32;100.00
4972;BME280;2501;51.214;6.768;2022-09-06T09:51:37;100967.88;;;26.24;100.00
4972;BME280;2501;51.214;6.768;2022-09-06T09:54:07;100971.72;;;26.12;100.00
4972;BME280;2501;51.214;6.768;2022-09-06T09:56:41;100961.44;;;26.38;100.00
4972;BME280;2501;51.214;6.768;2022-09-06T09:59:22;100960.13;;;26.68;100.00
4972;BME280;2501;51.214;6.768;2022-09-06T10:01:54;100961.19;;;26.71;100.00
4972;BME280;2501;51.214;6.768;2022-09-06T10:04:29;100953.19;;;26.84;100.00
4972;BME280;2501;51.214;6.768;2022-09-06T10:07:13;100961.09;;;26.51;100.00
4972;BME280;2501;51.214;6.768;2022-09-06T10:09:47;100945.19;;;26.00;100.00
4972;BME280;2501;51.214;6.768;2022-09-06T10:12:18;100947.94;;;25.95;100.00
4972;BME280;2501;51.214;6.768;2022-09-06T10:14:57;100939.06;;;26.16;100.00
4972;BME280;2501;51.214;6.768;2022-09-06T10:17:30;100946.25;;;26.26;100.00
4972;BME280;2501;51.214;6.768;2022-09-06T10:20:03;100950.72;;;26.62;100.00
4972;BME280;2501;51.214;6.768;2022-09-06T10:22:42;100950.13;;;26.73;100.00
4972;BME280;2501;51.214;6.768;2022-09-06T10:25:37;100962.75;;;26.72;100.00
4972;BME280;2501;51.214;6.768;2022-09-06T10:28:19;100967.88;;;26.53;100.00
4972;BME280;2501;51.214;6.768;2022-09-06T10:31:14;100980.72;;;26.93;100.00
4972;BME280;2501;51.214;6.768;2022-09-06T10:33:58;100967.66;;;27.21;100.00
4972;BME280;2501;51.214;6.768;2022-09-06T10:36:33;100964.91;;;27.26;100.00
4972;BME280;2501;51.214;6.768;2022-09-06T10:39:06;100951.28;;;27.31;96.06
4972;BME280;2501;51.214;6.768;2022-09-06T10:41:46;100946.56;;;27.07;95.13
4972;BME280;2501;51.214;6.768;2022-09-06T10:44:30;100947.66;;;26.95;96.56
4972;BME280;2501;51.214;6.768;2022-09-06T10:47:09;100951.59;;;27.18;96.58
4972;BME280;2501;51.214;6.768;2022-09-06T10:49:40;100953.50;;;27.06;96.67
4972;BME280;2501;51.214;6.768;2022-09-06T10:52:14;100957.50;;;27.14;99.52
4972;BME280;2501;51.214;6.768;2022-09-06T10:54:44;100956.56;;;27.03;98.33
4972;BME280;2501;51.214;6.768;2022-09-06T10:57:17;100958.78;;;27.13;100.00
4972;BME280;2501;51.214;6.768;2022-09-06T10:59:51;100958.66;;;27.22;100.00
4972;BME280;2501;51.214;6.768;2022-09-06T11:02:34;100948.16;;;27.49;99.55
4972;BME280;2501;51.214;6.768;2022-09-06T11:05:09;100952.47;;;27.59;98.69
4972;BME280;2501;51.214;6.768;2022-09-06T11:07:40;100950.31;;;27.74;97.45
4972;BME280;2501;51.214;6.768;2022-09-06T11:10:15;100943.91;;;27.59;98.49
4972;BME280;2501;51.214;6.768;2022-09-06T11:12:49;100942.47;;;27.69;95.43
4972;BME280;2501;51.214;6.768;2022-09-06T11:15:23;100944.75;;;27.85;95.59
4972;BME280;2501;51.214;6.768;2022-09-06T11:17:59;100931.75;;;27.58;97.93
4972;BME280;2501;51.214;6.768;2022-09-06T11:20:34;100930.63;;;27.50;99.07
4972;BME280;2501;51.214;6.768;2022-09-06T11:23:19;100939.81;;;27.60;97.95
4972;BME280;2501;51.214;6.768;2022-09-06T11:29:02;100939.00;;;27.80;97.56
4972;BME280;2501;51.214;6.768;2022-09-06T11:31:33;100937.41;;;27.99;97.60
4972;BME280;2501;51.214;6.768;2022-09-06T11:34:07;100941.22;;;28.16;92.45
4972;BME280;2501;51.214;6.768;2022-09-06T11:36:38;100938.09;;;28.14;91.02
4972;BME280;2501;51.214;6.768;2022-09-06T11:39:12;100945.69;;;28.23;90.16
4972;BME280;2501;51.214;6.768;2022-09-06T11:41:42;100941.72;;;28.40;88.83
4972;BME280;2501;51.214;6.768;2022-09-06T11:44:10;100939.00;;;28.05;89.86
4972;BME280;2501;51.214;6.768;2022-09-06T11:46:57;100943.13;;;28.25;90.98
4972;BME280;2501;51.214;6.768;2022-09-06T11:49:49;100933.78;;;28.24;92.48
4972;BME280;2501;51.214;6.768;2022-09-06T11:55:35;100934.56;;;28.25;95.06
4972;BME280;2501;51.214;6.768;2022-09-06T11:58:09;100932.69;;;28.47;93.94
4972;BME280;2501;51.214;6.768;2022-09-06T12:00:37;100932.34;;;28.65;92.85
4972;BME280;2501;51.214;6.768;2022-09-06T12:03:07;100935.31;;;28.51;94.71
4972;BME280;2501;51.214;6.768;2022-09-06T12:08:37;100928.38;;;28.26;94.71
4972;BME280;2501;51.214;6.768;2022-09-06T12:11:28;100927.38;;;28.60;93.80
4972;BME280;2501;51.214;6.768;2022-09-06T12:14:02;100918.44;;;28.73;93.47
4972;BME280;2501;51.214;6.768;2022-09-06T12:19:42;100917.31;;;28.96;92.24
4972;BME280;2501;51.214;6.768;2022-09-06T12:25:18;100916.25;;;28.62;87.13
4972;BME280;2501;51.214;6.768;2022-09-06T12:27:51;100907.19;;;28.64;88.92
4972;BME280;2501;51.214;6.768;2022-09-06T12:30:32;100907.75;;;28.68;90.50
4972;BME280;2501;51.214;6.768;2022-09-06T12:33:04;100907.91;;;28.85;89.54
4972;BME280;2501;51.214;6.768;2022-09-06T12:35:35;100905.53;;;28.78;89.50
4972;BME280;2501;51.214;6.768;2022-09-06T12:38:05;100909.00;;;28.98;89.11
4972;BME280;2501;51.214;6.768;2022-09-06T12:40:38;100907.97;;;29.01;88.31
4972;BME280;2501;51.214;6.768;2022-09-06T12:43:09;100907.13;;;28.90;89.75
4972;BME280;2501;51.214;6.768;2022-09-06T12:45:41;100906.25;;;28.73;92.43
4972;BME280;2501;51.214;6.768;2022-09-06T12:48:23;100908.56;;;29.11;90.38
4972;BME280;2501;51.214;6.768;2022-09-06T12:51:00;100899.22;;;29.05;79.04
4972;BME280;2501;51.214;6.768;2022-09-06T12:53:29;100893.03;;;29.18;76.46
4972;BME280;2501;51.214;6.768;2022-09-06T12:56:07;100888.72;;;29.28;71.20
4972;BME280;2501;51.214;6.768;2022-09-06T12:58:37;100887.34;;;29.18;73.57
4972;BME280;2501;51.214;6.768;2022-09-06T13:01:11;100887.97;;;29.38;72.57
4972;BME280;2501;51.214;6.768;2022-09-06T13:03:45;100873.22;;;29.45;70.49
4972;BME280;2501;51.214;6.768;2022-09-06T13:06:20;100884.13;;;29.47;68.99
4972;BME280;2501;51.214;6.768;2022-09-06T13:08:52;100883.38;;;29.52;69.54
4972;BME280;2501;51.214;6.768;2022-09-06T13:11:26;100885.19;;;29.60;72.86
4972;BME280;2501;51.214;6.768;2022-09-06T13:13:57;100877.97;;;29.71;71.31
4972;BME280;2501;51.214;6.768;2022-09-06T13:16:27;100876.19;;;29.79;70.11
4972;BME280;2501;51.214;6.768;2022-09-06T13:19:10;100877.03;;;30.01;68.63
4972;BME280;2501;51.214;6.768;2022-09-06T13:21:39;100865.03;;;30.86;66.49
4972;BME280;2501;51.214;6.768;2022-09-06T13:24:19;100874.47;;;31.56;63.45
4972;BME280;2501;51.214;6.768;2022-09-06T13:26:51;100853.56;;;31.66;63.27
4972;BME280;2501;51.214;6.768;2022-09-06T13:29:24;100856.19;;;30.95;64.41
4972;BME280;2501;51.214;6.768;2022-09-06T13:31:57;100860.56;;;31.13;63.44
4972;BME280;2501;51.214;6.768;2022-09-06T13:34:28;100852.31;;;32.32;60.69
4972;BME280;2501;51.214;6.768;2022-09-06T13:37:00;100851.22;;;32.06;58.07
4972;BME280;2501;51.214;6.768;2022-09-06T13:39:33;100847.69;;;31.42;59.07
4972;BME280;2501;51.214;6.768;2022-09-06T13:42:06;100851.78;;;30.78;60.37
4972;BME280;2501;51.214;6.768;2022-09-06T13:44:37;100840.75;;;31.26;56.28